Time;durP1;ratioP1;P1;durP2;ratioP2;P2;SDS_P1;SDS_P2;PMS_P1;PMS_P2;Temp;Humidity;BMP_temperature;BMP_pressure;BME280_temperature;BME280_humidity;BME280_pressure;Samples;Min_cycle;Max_cycle;Signal;HPM_P1;HPM_P2
2022/11/23 00:01:50;;;;;;;3.77;3.37;;;;;;;;;;1768077;78;21089;-52
2022/11/23 00:04:17;;;;;;;4.60;3.00;;;;;;;;;;1766089;78;22430;-52
2022/11/23 00:06:44;;;;;;;4.47;2.80;;;;;;;;;;1730112;80;21099;-52
2022/11/23 00:09:11;;;;;;;4.67;3.53;;;;;;;;;;1731529;80;21587;-52
2022/11/23 00:11:37;;;;;;;4.10;2.90;;;;;;;;;;1756726;79;21142;-51
2022/11/23 00:14:04;;;;;;;3.27;2.97;;;;;;;;;;1736773;80;21115;-52
2022/11/23 00:16:31;;;;;;;5.60;3.37;;;;;;;;;;1729190;81;21083;-53
2022/11/23 00:18:59;;;;;;;4.23;3.33;;;;;;;;;;1743009;80;21076;-53
2022/11/23 00:21:27;;;;;;;6.53;4.03;;;;;;;;;;1752330;79;21036;-53
2022/11/23 00:23:54;;;;;;;4.47;3.47;;;;;;;;;;1752061;79;21233;-52
2022/11/23 00:26:20;;;;;;;4.10;3.53;;;;;;;;;;1742020;79;21051;-53
2022/11/23 00:28:46;;;;;;;5.03;3.47;;;;;;;;;;1748450;79;21774;-53
2022/11/23 00:31:14;;;;;;;6.67;3.43;;;;;;;;;;1761933;79;21078;-53
2022/11/23 00:33:50;;;;;;;4.63;2.93;;;;;;;;;;1758684;79;21052;-53
2022/11/23 00:36:17;;;;;;;5.03;3.67;;;;;;;;;;1760839;79;21117;-52
2022/11/23 00:38:44;;;;;;;6.13;3.87;;;;;;;;;;1779713;78;21062;-52
2022/11/23 00:41:18;;;;;;;4.60;3.20;;;;;;;;;;1753028;79;21863;-52
2022/11/23 00:43:44;;;;;;;4.37;2.85;;;;;;;;;;1727754;80;21097;-53
2022/11/23 00:46:23;;;;;;;4.73;4.20;;;;;;;;;;1726879;80;21176;-52
2022/11/23 00:48:51;;;;;;;5.30;3.33;;;;;;;;;;1758591;79;21291;-52
2022/11/23 00:51:20;;;;;;;4.87;3.60;;;;;;;;;;1761346;79;21088;-52
2022/11/23 00:53:46;;;;;;;6.10;4.57;;;;;;;;;;1744978;79;22169;-52
2022/11/23 00:56:12;;;;;;;5.60;3.63;;;;;;;;;;1751393;79;21534;-51
2022/11/23 00:58:39;;;;;;;7.43;4.37;;;;;;;;;;1758514;78;21689;-51
2022/11/23 01:01:10;;;;;;;6.10;4.03;;;;;;;;;;1758222;79;21059;-52
2022/11/23 01:03:37;;;;;;;6.33;4.53;;;;;;;;;;1762402;79;21643;-52
2022/11/23 01:06:09;;;;;;;4.47;3.50;;;;;;;;;;1731522;80;21907;-52
2022/11/23 01:08:37;;;;;;;8.00;5.57;;;;;;;;;;1762530;79;21629;-52
2022/11/23 01:11:05;;;;;;;6.10;5.07;;;;;;;;;;1753796;79;21040;-52
2022/11/23 01:13:35;;;;;;;6.83;4.20;;;;;;;;;;1762059;79;21071;-52
2022/11/23 01:16:02;;;;;;;5.93;4.53;;;;;;;;;;1761990;79;21743;-52
2022/11/23 01:18:28;;;;;;;8.67;5.70;;;;;;;;;;1727390;80;22519;-52
2022/11/23 01:20:54;;;;;;;8.40;5.17;;;;;;;;;;1779512;78;21517;-52
2022/11/23 01:23:20;;;;;;;7.50;4.57;;;;;;;;;;1775087;78;21444;-54
2022/11/23 01:25:47;;;;;;;9.00;5.80;;;;;;;;;;1771714;79;21067;-52
2022/11/23 01:28:13;;;;;;;6.73;5.00;;;;;;;;;;1786825;78;21035;-52
2022/11/23 01:30:40;;;;;;;8.73;5.73;;;;;;;;;;1777497;78;21836;-52
2022/11/23 01:33:08;;;;;;;10.00;5.57;;;;;;;;;;1770134;78;21212;-51
2022/11/23 01:35:36;;;;;;;9.33;5.17;;;;;;;;;;1776785;78;21089;-52
2022/11/23 01:38:03;;;;;;;9.47;5.17;;;;;;;;;;1775213;78;21100;-51
2022/11/23 01:40:29;;;;;;;7.47;4.73;;;;;;;;;;1748030;80;21580;-52
2022/11/23 01:42:57;;;;;;;7.37;4.80;;;;;;;;;;1748755;79;21822;-52
2022/11/23 01:45:38;;;;;;;8.03;5.50;;;;;;;;;;1749678;80;21152;-52
2022/11/23 01:48:14;;;;;;;7.70;5.60;;;;;;;;;;1751253;79;21411;-52
2022/11/23 01:50:41;;;;;;;8.90;6.10;;;;;;;;;;1757980;79;21003;-51
2022/11/23 01:53:07;;;;;;;6.67;5.77;;;;;;;;;;1751787;78;21099;-52
2022/11/23 01:55:33;;;;;;;10.80;6.10;;;;;;;;;;1748175;79;22135;-52
2022/11/23 01:57:59;;;;;;;7.43;5.60;;;;;;;;;;1738953;79;21121;-52
2022/11/23 02:00:25;;;;;;;9.83;5.67;;;;;;;;;;1730572;80;21137;-52
2022/11/23 02:02:55;;;;;;;10.07;6.23;;;;;;;;;;1749557;79;21499;-52
2022/11/23 02:05:23;;;;;;;8.37;5.53;;;;;;;;;;1753177;79;21097;-51
2022/11/23 02:07:49;;;;;;;7.87;5.67;;;;;;;;;;1753879;79;21893;-52
2022/11/23 02:10:16;;;;;;;8.33;5.67;;;;;;;;;;1753416;79;21078;-52
2022/11/23 02:12:42;;;;;;;7.20;5.50;;;;;;;;;;1760096;79;21683;-52
2022/11/23 02:15:10;;;;;;;9.20;6.00;;;;;;;;;;1727091;80;21520;-52
2022/11/23 02:17:36;;;;;;;8.27;6.00;;;;;;;;;;1734050;80;21130;-52
2022/11/23 02:20:11;;;;;;;9.00;4.90;;;;;;;;;;1768611;79;21827;-52
2022/11/23 02:23:02;;;;;;;9.73;6.07;;;;;;;;;;1726049;80;20999;-52
2022/11/23 02:25:44;;;;;;;9.07;5.97;;;;;;;;;;1695676;82;21125;-52
2022/11/23 02:28:12;;;;;;;8.23;5.67;;;;;;;;;;1756250;79;21112;-52
2022/11/23 02:30:38;;;;;;;10.07;6.40;;;;;;;;;;1749878;79;21052;-52
2022/11/23 02:33:07;;;;;;;8.50;6.00;;;;;;;;;;1719313;80;21847;-52
2022/11/23 02:35:35;;;;;;;12.20;6.70;;;;;;;;;;1731200;81;21071;-52
2022/11/23 02:38:01;;;;;;;9.67;6.07;;;;;;;;;;1727668;80;21164;-52
2022/11/23 02:40:31;;;;;;;13.13;8.03;;;;;;;;;;1706033;81;21096;-52
2022/11/23 02:42:58;;;;;;;12.77;7.97;;;;;;;;;;1718300;80;21210;-52
2022/11/23 02:45:38;;;;;;;12.53;7.27;;;;;;;;;;1748768;79;21814;-52
2022/11/23 02:48:05;;;;;;;11.00;6.50;;;;;;;;;;1757987;79;21454;-52
2022/11/23 02:50:31;;;;;;;10.47;6.40;;;;;;;;;;1728514;80;21135;-52
2022/11/23 02:53:00;;;;;;;12.57;6.47;;;;;;;;;;1728196;80;21080;-52
2022/11/23 02:55:26;;;;;;;12.03;7.03;;;;;;;;;;1719144;80;21100;-52
2022/11/23 02:57:53;;;;;;;9.70;6.20;;;;;;;;;;1718287;80;21392;-52
2022/11/23 03:00:19;;;;;;;12.43;7.50;;;;;;;;;;1729406;80;21048;-52
2022/11/23 03:02:48;;;;;;;12.47;7.47;;;;;;;;;;1726708;81;21679;-52
2022/11/23 03:05:15;;;;;;;11.30;6.33;;;;;;;;;;1756283;79;21107;-52
2022/11/23 03:07:41;;;;;;;12.17;7.30;;;;;;;;;;1775984;78;21071;-52
2022/11/23 03:10:09;;;;;;;14.10;7.50;;;;;;;;;;1771234;78;21838;-52
2022/11/23 03:12:36;;;;;;;13.93;7.23;;;;;;;;;;1759083;78;21365;-53
2022/11/23 03:15:04;;;;;;;12.83;7.67;;;;;;;;;;1750682;79;21560;-52
2022/11/23 03:17:32;;;;;;;11.47;6.53;;;;;;;;;;1776168;78;21091;-52
2022/11/23 03:19:59;;;;;;;12.03;7.53;;;;;;;;;;1754585;79;21085;-52
2022/11/23 03:22:26;;;;;;;13.23;6.90;;;;;;;;;;1736061;80;21779;-52
2022/11/23 03:24:53;;;;;;;11.47;7.30;;;;;;;;;;1752447;79;21036;-52
2022/11/23 03:27:19;;;;;;;13.47;6.77;;;;;;;;;;1749521;79;21127;-52
2022/11/23 03:29:46;;;;;;;12.10;6.00;;;;;;;;;;1725254;81;21105;-52
2022/11/23 03:32:14;;;;;;;17.27;6.60;;;;;;;;;;1715939;80;21118;-52
2022/11/23 03:34:43;;;;;;;10.63;6.77;;;;;;;;;;1726405;80;21840;-52
2022/11/23 03:37:09;;;;;;;11.87;6.37;;;;;;;;;;1756471;79;21078;-52
2022/11/23 03:39:37;;;;;;;8.50;5.13;;;;;;;;;;1765304;79;21108;-52
2022/11/23 03:42:23;;;;;;;10.13;5.60;;;;;;;;;;1759296;79;21041;-52
2022/11/23 03:44:49;;;;;;;8.40;4.80;;;;;;;;;;1767563;79;21494;-52
2022/11/23 03:47:16;;;;;;;6.57;3.80;;;;;;;;;;1731493;80;21839;-53
2022/11/23 03:49:43;;;;;;;6.43;3.97;;;;;;;;;;1759217;79;21373;-53
2022/11/23 03:52:10;;;;;;;4.97;3.17;;;;;;;;;;1746974;79;21033;-52
2022/11/23 03:54:37;;;;;;;4.87;3.40;;;;;;;;;;1746573;80;21047;-52
2022/11/23 03:57:03;;;;;;;6.77;2.63;;;;;;;;;;1754268;79;21550;-53
2022/11/23 03:59:33;;;;;;;4.87;2.67;;;;;;;;;;1742986;78;21789;-53
2022/11/23 04:02:01;;;;;;;5.30;3.53;;;;;;;;;;1737671;79;21538;-52
2022/11/23 04:04:29;;;;;;;3.63;2.40;;;;;;;;;;1753053;79;21157;-52
2022/11/23 04:07:03;;;;;;;6.45;2.90;;;;;;;;;;1736701;79;21436;-53
2022/11/23 04:09:32;;;;;;;4.73;2.80;;;;;;;;;;1743265;79;21363;-52
2022/11/23 04:12:03;;;;;;;5.57;3.00;;;;;;;;;;1736776;79;21464;-53
2022/11/23 04:14:29;;;;;;;4.73;3.13;;;;;;;;;;1751954;79;21571;-53
2022/11/23 04:16:58;;;;;;;4.50;3.00;;;;;;;;;;1743378;79;21077;-52
2022/11/23 04:19:25;;;;;;;4.37;2.93;;;;;;;;;;1753606;79;21053;-52
2022/11/23 04:21:52;;;;;;;3.67;2.43;;;;;;;;;;1746658;79;21553;-53
2022/11/23 04:24:20;;;;;;;3.67;2.20;;;;;;;;;;1737982;80;21829;-52
2022/11/23 04:26:46;;;;;;;2.93;1.90;;;;;;;;;;1748817;79;21145;-52
2022/11/23 04:29:13;;;;;;;2.70;1.70;;;;;;;;;;1759212;78;21073;-52
2022/11/23 04:31:41;;;;;;;3.90;2.20;;;;;;;;;;1728380;80;21109;-52
2022/11/23 04:34:09;;;;;;;3.70;3.03;;;;;;;;;;1761462;79;21498;-52
2022/11/23 04:36:36;;;;;;;2.97;2.00;;;;;;;;;;1765009;79;21779;-52
2022/11/23 04:39:05;;;;;;;3.13;2.03;;;;;;;;;;1761150;79;21053;-52
2022/11/23 04:41:36;;;;;;;3.50;1.63;;;;;;;;;;1761673;79;21104;-52
2022/11/23 04:44:03;;;;;;;3.20;2.13;;;;;;;;;;1754841;79;21672;-52
2022/11/23 04:46:30;;;;;;;2.73;1.70;;;;;;;;;;1752069;79;21624;-52
2022/11/23 04:48:57;;;;;;;2.10;1.53;;;;;;;;;;1749038;79;21745;-52
2022/11/23 04:51:25;;;;;;;3.27;1.47;;;;;;;;;;1753328;79;21094;-52
2022/11/23 04:53:51;;;;;;;2.40;1.60;;;;;;;;;;1732800;80;21053;-52
2022/11/23 04:56:18;;;;;;;2.03;1.40;;;;;;;;;;1742689;79;21244;-52
2022/11/23 04:58:46;;;;;;;2.73;1.30;;;;;;;;;;1763604;78;20999;-51
2022/11/23 05:01:12;;;;;;;2.27;1.20;;;;;;;;;;1760408;79;22058;-52
2022/11/23 05:03:40;;;;;;;2.50;1.40;;;;;;;;;;1752925;79;21465;-52
2022/11/23 05:06:08;;;;;;;2.60;1.40;;;;;;;;;;1753431;79;21066;-52
2022/11/23 05:08:37;;;;;;;2.67;1.83;;;;;;;;;;1750970;79;21423;-52
2022/11/23 05:11:05;;;;;;;2.20;1.70;;;;;;;;;;1757568;78;21114;-52
2022/11/23 05:13:31;;;;;;;2.20;1.77;;;;;;;;;;1776699;78;21505;-52
2022/11/23 05:15:59;;;;;;;3.03;1.40;;;;;;;;;;1762161;78;21046;-52
2022/11/23 05:18:27;;;;;;;3.07;1.70;;;;;;;;;;1767399;79;21057;-52
2022/11/23 05:20:53;;;;;;;2.80;1.70;;;;;;;;;;1719435;80;21072;-52
2022/11/23 05:23:20;;;;;;;3.30;1.67;;;;;;;;;;1765108;78;21650;-52
2022/11/23 05:25:46;;;;;;;2.47;1.70;;;;;;;;;;1767126;79;22097;-52
2022/11/23 05:28:17;;;;;;;3.50;1.93;;;;;;;;;;1760654;79;21120;-52
2022/11/23 05:30:43;;;;;;;4.13;1.83;;;;;;;;;;1739352;80;21086;-52
2022/11/23 05:33:09;;;;;;;3.30;2.03;;;;;;;;;;1753871;79;21085;-52
2022/11/23 05:35:36;;;;;;;3.17;2.13;;;;;;;;;;1777382;79;21352;-52
2022/11/23 05:38:03;;;;;;;7.23;2.80;;;;;;;;;;1771480;78;21873;-53
2022/11/23 05:40:31;;;;;;;20.63;6.03;;;;;;;;;;1771417;78;21113;-52
2022/11/23 05:42:58;;;;;;;17.47;6.27;;;;;;;;;;1767302;78;21052;-52
2022/11/23 05:45:25;;;;;;;11.30;5.50;;;;;;;;;;1744934;79;21426;-51
2022/11/23 05:47:54;;;;;;;7.13;3.67;;;;;;;;;;1778024;78;21110;-52
2022/11/23 05:50:23;;;;;;;11.03;4.50;;;;;;;;;;1769340;78;21916;-51
2022/11/23 05:52:52;;;;;;;12.60;4.60;;;;;;;;;;1772180;78;21071;-51
2022/11/23 05:55:19;;;;;;;6.17;3.60;;;;;;;;;;1767517;79;21032;-51
2022/11/23 05:57:46;;;;;;;8.73;3.13;;;;;;;;;;1768718;79;21119;-52
2022/11/23 06:00:14;;;;;;;5.37;2.90;;;;;;;;;;1772098;80;21071;-51
2022/11/23 06:02:44;;;;;;;5.50;3.17;;;;;;;;;;1768249;78;21692;-51
2022/11/23 06:05:10;;;;;;;6.23;3.47;;;;;;;;;;1763200;80;21425;-52
2022/11/23 06:07:39;;;;;;;6.17;3.13;;;;;;;;;;1762405;79;21150;-52
2022/11/23 06:10:08;;;;;;;4.37;2.50;;;;;;;;;;1718496;81;21085;-52
2022/11/23 06:12:37;;;;;;;4.40;2.87;;;;;;;;;;1761126;79;21150;-52
2022/11/23 06:15:07;;;;;;;2.93;2.10;;;;;;;;;;1762119;79;21861;-52
2022/11/23 06:17:34;;;;;;;4.63;2.20;;;;;;;;;;1723452;80;21088;-51
2022/11/23 06:20:05;;;;;;;2.77;2.20;;;;;;;;;;1755860;79;21131;-52
2022/11/23 06:22:33;;;;;;;2.63;1.77;;;;;;;;;;1770139;78;21384;-53
2022/11/23 06:25:01;;;;;;;3.50;2.40;;;;;;;;;;1717579;81;21543;-52
2022/11/23 06:27:41;;;;;;;4.57;2.63;;;;;;;;;;1750395;79;21888;-52
2022/11/23 06:30:16;;;;;;;1.92;1.57;;;;;;;;;;1747517;80;21077;-52
2022/11/23 06:32:42;;;;;;;2.83;1.57;;;;;;;;;;1771131;78;21025;-52
2022/11/23 06:35:09;;;;;;;2.47;1.83;;;;;;;;;;1735046;80;21517;-52
2022/11/23 06:37:37;;;;;;;3.03;1.63;;;;;;;;;;1760462;79;21149;-52
2022/11/23 06:40:04;;;;;;;3.20;2.07;;;;;;;;;;1763036;79;21843;-52
2022/11/23 06:42:32;;;;;;;2.23;1.30;;;;;;;;;;1724738;80;21054;-52
2022/11/23 06:44:59;;;;;;;1.70;1.40;;;;;;;;;;1713533;81;21041;-52
2022/11/23 06:47:27;;;;;;;2.00;1.30;;;;;;;;;;1765282;79;21568;-52
2022/11/23 06:49:54;;;;;;;3.63;1.37;;;;;;;;;;1710157;81;21183;-52
2022/11/23 06:52:25;;;;;;;3.00;1.70;;;;;;;;;;1753711;79;21693;-52
2022/11/23 06:54:52;;;;;;;2.37;1.50;;;;;;;;;;1757025;79;21114;-51
2022/11/23 06:57:18;;;;;;;2.80;1.30;;;;;;;;;;1758090;79;21131;-53
2022/11/23 06:59:45;;;;;;;2.90;1.50;;;;;;;;;;1762402;79;21934;-51
2022/11/23 07:02:13;;;;;;;3.57;1.60;;;;;;;;;;1762215;78;21424;-52
2022/11/23 07:04:40;;;;;;;2.87;1.73;;;;;;;;;;1764765;79;21033;-52
2022/11/23 07:07:08;;;;;;;2.40;1.93;;;;;;;;;;1764181;79;21025;-52
2022/11/23 07:09:37;;;;;;;4.27;1.83;;;;;;;;;;1750318;79;21181;-52
2022/11/23 07:12:12;;;;;;;2.57;1.60;;;;;;;;;;1724689;80;21050;-52
2022/11/23 07:14:39;;;;;;;3.13;1.80;;;;;;;;;;1729742;80;22377;-52
2022/11/23 07:17:05;;;;;;;4.30;2.70;;;;;;;;;;1749909;78;21954;-51
2022/11/23 07:19:33;;;;;;;3.93;2.30;;;;;;;;;;1774941;78;21500;-52
2022/11/23 07:21:59;;;;;;;4.07;2.77;;;;;;;;;;1780822;78;21385;-52
2022/11/23 07:24:25;;;;;;;3.50;2.20;;;;;;;;;;1743806;80;21088;-51
2022/11/23 07:26:52;;;;;;;5.53;3.37;;;;;;;;;;1774056;78;20986;-52
2022/11/23 07:29:19;;;;;;;4.10;2.23;;;;;;;;;;1723719;81;21784;-52
2022/11/23 07:31:45;;;;;;;5.63;2.90;;;;;;;;;;1723307;79;21054;-51
2022/11/23 07:34:13;;;;;;;5.77;3.80;;;;;;;;;;1779970;78;21115;-51
2022/11/23 07:36:40;;;;;;;5.80;3.27;;;;;;;;;;1717420;80;21112;-51
2022/11/23 07:39:07;;;;;;;5.23;3.63;;;;;;;;;;1759684;79;21064;-51
2022/11/23 07:41:34;;;;;;;5.97;3.50;;;;;;;;;;1736059;80;21255;-51
2022/11/23 07:44:05;;;;;;;8.23;4.53;;;;;;;;;;1723648;80;21056;-52
2022/11/23 07:46:31;;;;;;;7.03;3.93;;;;;;;;;;1742340;79;21067;-51
2022/11/23 07:49:01;;;;;;;8.60;4.57;;;;;;;;;;1736832;79;21087;-51
2022/11/23 07:51:26;;;;;;;7.00;5.10;;;;;;;;;;1732223;80;21050;-51
2022/11/23 07:53:52;;;;;;;9.30;5.17;;;;;;;;;;1774212;78;21961;-51
2022/11/23 07:56:19;;;;;;;7.10;4.70;;;;;;;;;;1738779;80;21049;-51
2022/11/23 07:58:46;;;;;;;9.07;5.50;;;;;;;;;;1752251;79;21163;-51
2022/11/23 08:01:17;;;;;;;9.13;5.70;;;;;;;;;;1778382;78;21569;-51
2022/11/23 08:03:44;;;;;;;7.53;4.90;;;;;;;;;;1778796;78;21090;-50
2022/11/23 08:06:10;;;;;;;5.63;4.27;;;;;;;;;;1770562;78;21760;-50
2022/11/23 08:08:37;;;;;;;8.10;5.57;;;;;;;;;;1778286;78;21613;-52
2022/11/23 08:11:06;;;;;;;8.57;5.33;;;;;;;;;;1785265;78;21084;-51
2022/11/23 08:13:37;;;;;;;9.20;5.10;;;;;;;;;;1786335;78;21050;-51
2022/11/23 08:16:02;;;;;;;11.20;5.67;;;;;;;;;;1773688;78;21031;-51
2022/11/23 08:18:28;;;;;;;10.30;5.70;;;;;;;;;;1776020;78;21224;-51
2022/11/23 08:20:58;;;;;;;9.90;5.90;;;;;;;;;;1772811;78;21427;-51
2022/11/23 08:23:24;;;;;;;11.17;6.83;;;;;;;;;;1778562;78;21023;-52
2022/11/23 08:25:52;;;;;;;10.90;6.57;;;;;;;;;;1776387;79;21057;-51
2022/11/23 08:28:18;;;;;;;12.57;7.43;;;;;;;;;;1779025;78;21085;-51
2022/11/23 08:30:46;;;;;;;12.00;7.70;;;;;;;;;;1775328;78;21121;-51
2022/11/23 08:33:13;;;;;;;13.00;7.93;;;;;;;;;;1780246;78;21557;-52
2022/11/23 08:35:41;;;;;;;13.47;7.40;;;;;;;;;;1771434;78;21497;-51
2022/11/23 08:38:08;;;;;;;14.90;7.13;;;;;;;;;;1777926;78;21051;-51
2022/11/23 08:40:35;;;;;;;14.33;8.00;;;;;;;;;;1772738;78;21130;-52
2022/11/23 08:43:01;;;;;;;14.37;8.03;;;;;;;;;;1776270;78;21834;-52
2022/11/23 08:45:28;;;;;;;18.63;9.47;;;;;;;;;;1779118;78;21467;-51
2022/11/23 08:47:59;;;;;;;14.07;9.13;;;;;;;;;;1780595;78;21094;-51
2022/11/23 08:50:25;;;;;;;15.17;8.53;;;;;;;;;;1760185;78;21632;-51
2022/11/23 08:52:56;;;;;;;15.73;9.43;;;;;;;;;;1775510;78;21513;-51
2022/11/23 08:55:23;;;;;;;16.60;8.53;;;;;;;;;;1776502;78;22505;-52
2022/11/23 08:57:49;;;;;;;17.40;9.07;;;;;;;;;;1767807;78;21166;-51
2022/11/23 09:00:16;;;;;;;15.20;8.30;;;;;;;;;;1775807;78;21067;-52
2022/11/23 09:02:42;;;;;;;17.83;9.73;;;;;;;;;;1738914;80;21079;-51
2022/11/23 09:05:09;;;;;;;18.20;10.03;;;;;;;;;;1710363;81;21271;-51
2022/11/23 09:07:35;;;;;;;21.57;11.10;;;;;;;;;;1754143;79;21840;-51
2022/11/23 09:10:01;;;;;;;35.20;22.30;;;;;;;;;;1743080;78;21430;-51
2022/11/23 09:12:28;;;;;;;18.77;11.37;;;;;;;;;;1773679;78;21060;-51
2022/11/23 09:14:54;;;;;;;18.17;11.47;;;;;;;;;;1776469;79;21146;-51
2022/11/23 09:17:20;;;;;;;15.63;9.90;;;;;;;;;;1768712;78;21041;-51
2022/11/23 09:19:49;;;;;;;18.53;9.87;;;;;;;;;;1778532;78;21864;-51
2022/11/23 09:22:16;;;;;;;15.90;9.10;;;;;;;;;;1774397;78;22026;-51
2022/11/23 09:24:43;;;;;;;16.47;10.27;;;;;;;;;;1773400;78;21029;-51
2022/11/23 09:27:09;;;;;;;14.40;8.70;;;;;;;;;;1774258;78;21127;-51
2022/11/23 09:29:36;;;;;;;14.07;8.43;;;;;;;;;;1775918;78;21035;-51
2022/11/23 09:32:03;;;;;;;16.47;8.80;;;;;;;;;;1776754;78;21830;-52
2022/11/23 09:35:24;;;;;;;12.57;7.80;;;;;;;;;;1759138;78;27348;-51
2022/11/23 09:37:57;;;;;;;10.90;6.87;;;;;;;;;;1729967;80;21062;-51
2022/11/23 09:40:26;;;;;;;13.03;8.00;;;;;;;;;;1736055;80;21596;-51
2022/11/23 09:43:32;;;;;;;17.47;9.10;;;;;;;;;;1723063;80;21547;-51
2022/11/23 09:46:00;;;;;;;;;;;;;;;;;;1728145;80;21578;-52
2022/11/23 09:48:42;;;;;;;16.03;7.87;;;;;;;;;;1728145;80;20494;-52
2022/11/23 09:51:22;;;;;;;17.53;9.00;;;;;;;;;;1728445;80;21068;-51
2022/11/23 09:53:55;;;;;;;16.77;9.27;;;;;;;;;;1729832;80;21842;-51
2022/11/23 09:56:25;;;;;;;14.87;8.00;;;;;;;;;;1729271;80;21073;-51
2022/11/23 09:58:53;;;;;;;17.00;9.47;;;;;;;;;;1726951;80;21053;-50
2022/11/23 10:01:20;;;;;;;15.23;9.07;;;;;;;;;;1725997;80;21037;-51
2022/11/23 10:03:46;;;;;;;20.70;10.43;;;;;;;;;;1724610;80;21061;-51
2022/11/23 10:06:21;;;;;;;18.27;10.83;;;;;;;;;;1722954;80;23150;-52
2022/11/23 10:09:08;;;;;;;17.40;10.70;;;;;;;;;;1726289;80;21440;-52
2022/11/23 10:11:44;;;;;;;16.27;10.43;;;;;;;;;;1720859;80;21035;-51
2022/11/23 10:14:25;;;;;;;19.87;12.60;;;;;;;;;;1731626;80;21407;-51
2022/11/23 10:17:01;;;;;;;21.33;11.80;;;;;;;;;;1726014;80;21097;-52
2022/11/23 10:19:34;;;;;;;20.53;12.43;;;;;;;;;;1724853;80;21826;-52
2022/11/23 10:22:13;;;;;;;22.67;11.93;;;;;;;;;;1691873;80;21061;-52
2022/11/23 10:24:43;;;;;;;18.90;11.43;;;;;;;;;;1694109;82;21107;-52
2022/11/23 10:27:13;;;;;;;23.50;13.97;;;;;;;;;;1680225;83;21510;-51
2022/11/23 10:29:39;;;;;;;21.37;13.07;;;;;;;;;;1678798;83;20994;-52
2022/11/23 10:32:06;;;;;;;25.93;13.30;;;;;;;;;;1659182;84;21823;-52
2022/11/23 10:34:36;;;;;;;22.80;12.97;;;;;;;;;;1661886;83;21087;-52
2022/11/23 10:37:10;;;;;;;23.83;13.20;;;;;;;;;;1711723;81;21531;-52
2022/11/23 10:39:37;;;;;;;19.63;12.17;;;;;;;;;;1714134;81;21077;-52
2022/11/23 10:42:06;;;;;;;24.00;13.37;;;;;;;;;;1709975;81;21275;-52
2022/11/23 10:44:36;;;;;;;18.97;12.10;;;;;;;;;;1713348;81;21936;-52
2022/11/23 10:47:03;;;;;;;21.97;13.33;;;;;;;;;;1715557;81;21049;-52
2022/11/23 10:49:32;;;;;;;20.60;12.13;;;;;;;;;;1714371;81;21334;-52
2022/11/23 10:52:07;;;;;;;23.03;13.70;;;;;;;;;;1715834;81;21326;-52
2022/11/23 10:54:39;;;;;;;19.13;12.30;;;;;;;;;;1710997;81;21537;-51
2022/11/23 10:57:21;;;;;;;16.57;11.03;;;;;;;;;;1710472;81;21904;-51
2022/11/23 11:00:06;;;;;;;16.80;11.13;;;;;;;;;;1699111;81;21313;-52
2022/11/23 11:02:45;;;;;;;18.87;11.27;;;;;;;;;;1712775;81;21149;-52
2022/11/23 11:05:29;;;;;;;17.97;11.20;;;;;;;;;;1714239;81;21767;-51
2022/11/23 11:07:58;;;;;;;19.95;12.05;;;;;;;;;;1716434;81;21054;-51
2022/11/23 11:10:41;;;;;;;15.20;10.47;;;;;;;;;;1718059;81;22411;-51
2022/11/23 11:13:31;;;;;;;18.30;11.00;;;;;;;;;;1720522;81;21052;-52
2022/11/23 11:16:02;;;;;;;17.33;10.20;;;;;;;;;;1708967;81;21026;-52
2022/11/23 11:18:31;;;;;;;15.93;10.43;;;;;;;;;;1713277;81;21133;-52
2022/11/23 11:21:01;;;;;;;21.53;12.00;;;;;;;;;;1712126;81;21042;-52
2022/11/23 11:23:27;;;;;;;14.87;10.27;;;;;;;;;;1709690;81;21850;-52
2022/11/23 11:26:19;;;;;;;16.57;9.60;;;;;;;;;;1715474;81;21064;-52
2022/11/23 11:28:50;;;;;;;19.20;10.37;;;;;;;;;;1716742;81;21591;-52
2022/11/23 11:31:44;;;;;;;17.73;10.97;;;;;;;;;;1713147;81;21528;-52
2022/11/23 11:34:23;;;;;;;14.13;9.30;;;;;;;;;;1713294;80;21105;-53
2022/11/23 11:37:14;;;;;;;19.20;10.07;;;;;;;;;;1724500;80;21990;-53
2022/11/23 11:39:48;;;;;;;14.80;9.37;;;;;;;;;;1729407;80;22000;-52
2022/11/23 11:42:36;;;;;;;12.50;8.83;;;;;;;;;;1729560;80;21041;-52
2022/11/23 11:45:03;;;;;;;15.97;9.40;;;;;;;;;;1727454;80;21533;-51
2022/11/23 11:47:42;;;;;;;10.90;8.53;;;;;;;;;;1727508;80;21116;-51
2022/11/23 11:50:21;;;;;;;12.77;8.73;;;;;;;;;;1733060;80;21782;-52
2022/11/23 11:52:47;;;;;;;13.50;9.03;;;;;;;;;;1723633;80;21076;-51
2022/11/23 11:55:30;;;;;;;16.40;10.63;;;;;;;;;;1723496;80;21559;-52
2022/11/23 11:58:03;;;;;;;13.50;9.40;;;;;;;;;;1731209;80;21029;-52
2022/11/23 12:00:30;;;;;;;18.40;12.20;;;;;;;;;;1723351;80;21070;-51
2022/11/23 12:03:17;;;;;;;14.10;9.77;;;;;;;;;;1724184;80;21841;-52
2022/11/23 12:05:48;;;;;;;17.80;10.10;;;;;;;;;;1730332;80;21025;-52
2022/11/23 12:08:24;;;;;;;18.13;10.20;;;;;;;;;;1728538;80;21574;-52
2022/11/23 12:10:53;;;;;;;14.43;9.03;;;;;;;;;;1729295;80;21073;-51
2022/11/23 12:13:24;;;;;;;16.97;10.00;;;;;;;;;;1729211;80;21882;-51
2022/11/23 12:16:07;;;;;;;14.73;9.03;;;;;;;;;;1724419;80;22869;-51
2022/11/23 12:19:11;;;;;;;13.33;9.33;;;;;;;;;;1733393;80;21056;-52
2022/11/23 12:21:54;;;;;;;14.33;9.85;;;;;;;;;;1729543;80;21039;-52
2022/11/23 12:24:33;;;;;;;11.70;7.83;;;;;;;;;;1728684;80;21041;-51
2022/11/23 12:27:16;;;;;;;13.47;7.97;;;;;;;;;;1727347;80;21069;-52
2022/11/23 12:29:58;;;;;;;10.13;7.37;;;;;;;;;;1723048;80;21970;-51
2022/11/23 12:33:56;;;;;;;12.93;8.47;;;;;;;;;;1789918;78;27907;-51
2022/11/23 12:36:59;;;;;;;13.80;8.47;;;;;;;;;;1772033;79;21289;-51
2022/11/23 12:39:41;;;;;;;10.03;6.67;;;;;;;;;;1778511;79;21962;-51
2022/11/23 12:42:29;;;;;;;14.90;8.70;;;;;;;;;;1777503;78;21096;-51
2022/11/23 12:44:59;;;;;;;10.67;7.57;;;;;;;;;;1775215;79;21049;-52
2022/11/23 12:47:35;;;;;;;13.03;8.30;;;;;;;;;;1779082;79;21026;-52
2022/11/23 12:50:28;;;;;;;11.13;8.03;;;;;;;;;;1777720;79;21064;-51
2022/11/23 12:53:15;;;;;;;12.67;7.80;;;;;;;;;;1678367;83;21971;-52
2022/11/23 12:56:00;;;;;;;14.57;8.80;;;;;;;;;;1779495;79;21067;-52
2022/11/23 12:58:29;;;;;;;13.55;8.85;;;;;;;;;;1779020;79;21542;-52
2022/11/23 13:00:59;;;;;;;14.27;8.83;;;;;;;;;;1777613;79;21041;-52
2022/11/23 13:03:34;;;;;;;15.13;10.10;;;;;;;;;;1778062;78;21335;-52
2022/11/23 13:06:29;;;;;;;13.40;8.37;;;;;;;;;;1736567;79;22569;-53
2022/11/23 13:09:19;;;;;;;14.83;8.10;;;;;;;;;;1779068;79;21483;-52
2022/11/23 13:11:58;;;;;;;14.83;8.37;;;;;;;;;;1771604;78;21108;-52
2022/11/23 13:14:28;;;;;;;13.37;9.20;;;;;;;;;;1770476;79;21084;-52
2022/11/23 13:17:01;;;;;;;13.03;8.80;;;;;;;;;;1779986;79;21060;-52
2022/11/23 13:19:34;;;;;;;14.23;8.83;;;;;;;;;;1778183;79;22798;-52
2022/11/23 13:22:00;;;;;;;14.70;9.47;;;;;;;;;;1776370;79;21144;-52
2022/11/23 13:24:31;;;;;;;16.17;9.77;;;;;;;;;;1777696;79;21569;-52
2022/11/23 13:27:17;;;;;;;19.47;12.33;;;;;;;;;;1770912;79;21088;-52
2022/11/23 13:29:47;;;;;;;;;;;;;;;;;;1783101;79;21076;-52
2022/11/23 13:32:45;;;;;;;22.70;11.77;;;;;;;;;;1774094;79;21821;-51
2022/11/23 13:35:24;;;;;;;18.40;11.10;;;;;;;;;;1767490;80;21087;-51
2022/11/23 13:37:57;;;;;;;20.40;12.20;;;;;;;;;;1765749;79;21026;-51
2022/11/23 13:40:32;;;;;;;18.83;10.93;;;;;;;;;;1764026;80;21050;-51
2022/11/23 13:43:00;;;;;;;17.13;11.03;;;;;;;;;;1763380;79;21092;-51
2022/11/23 13:45:35;;;;;;;25.00;13.77;;;;;;;;;;1763925;80;21077;-51
2022/11/23 13:48:13;;;;;;;22.30;13.60;;;;;;;;;;1766720;80;21033;-51
2022/11/23 13:50:52;;;;;;;23.40;14.30;;;;;;;;;;1767162;79;21063;-51
2022/11/23 13:53:21;;;;;;;23.73;13.80;;;;;;;;;;1764451;80;21036;-51
2022/11/23 13:55:47;;;;;;;22.93;13.53;;;;;;;;;;1765560;80;21077;-51
2022/11/23 13:58:25;;;;;;;26.13;14.20;;;;;;;;;;1765644;80;21026;-51
2022/11/23 14:00:55;;;;;;;23.60;15.03;;;;;;;;;;1765194;80;21049;-52
2022/11/23 14:03:50;;;;;;;25.50;16.40;;;;;;;;;;1765429;80;21630;-51
2022/11/23 14:06:23;;;;;;;22.93;13.65;;;;;;;;;;1766593;80;21050;-52
2022/11/23 14:08:52;;;;;;;21.77;12.90;;;;;;;;;;1765748;80;21756;-52
2022/11/23 14:11:20;;;;;;;18.03;10.90;;;;;;;;;;1765499;80;22544;-52
2022/11/23 14:13:57;;;;;;;22.20;12.00;;;;;;;;;;1765036;80;21351;-52
2022/11/23 14:16:59;;;;;;;34.73;17.37;;;;;;;;;;1766007;79;21374;-52
2022/11/23 14:19:32;;;;;;;24.50;13.27;;;;;;;;;;1764076;79;21145;-52
2022/11/23 14:22:19;;;;;;;28.53;15.97;;;;;;;;;;1764764;79;21531;-52
2022/11/23 14:25:06;;;;;;;32.47;18.60;;;;;;;;;;1762481;79;22777;-51
2022/11/23 14:27:47;;;;;;;33.60;19.20;;;;;;;;;;1765424;79;21061;-51
2022/11/23 14:30:33;;;;;;;36.90;20.20;;;;;;;;;;1767008;79;21035;-51
2022/11/23 14:33:19;;;;;;;32.60;19.87;;;;;;;;;;1761598;79;21061;-51
2022/11/23 14:35:53;;;;;;;32.50;19.53;;;;;;;;;;1765842;79;21037;-51
2022/11/23 14:38:41;;;;;;;35.03;19.50;;;;;;;;;;1765785;79;22011;-51
2022/11/23 14:41:08;;;;;;;32.83;19.70;;;;;;;;;;1764526;79;21086;-52
2022/11/23 14:43:35;;;;;;;35.33;19.77;;;;;;;;;;1764259;79;21532;-52
2022/11/23 14:46:03;;;;;;;30.07;18.03;;;;;;;;;;1761496;80;21050;-52
2022/11/23 14:48:33;;;;;;;32.17;20.17;;;;;;;;;;1764070;79;21033;-51
2022/11/23 14:51:02;;;;;;;27.60;17.20;;;;;;;;;;1768437;80;22651;-52
2022/11/23 14:53:32;;;;;;;32.27;19.10;;;;;;;;;;1763078;79;21038;-53
2022/11/23 14:55:58;;;;;;;36.60;21.23;;;;;;;;;;1765943;79;21113;-53
2022/11/23 14:58:24;;;;;;;33.30;20.40;;;;;;;;;;1763364;79;21049;-52